sensor_id;sensor_type;location;lat;lon;timestamp;P1;durP1;ratioP1;P2;durP2;ratioP2
12286;SDS011;6206;53.100;11.098;2022-08-11T00:00:19;3.43;;;2.03;;
12286;SDS011;6206;53.100;11.098;2022-08-11T00:02:49;5.28;;;2.25;;
12286;SDS011;6206;53.100;11.098;2022-08-11T00:05:19;3.50;;;2.10;;
12286;SDS011;6206;53.100;11.098;2022-08-11T00:07:48;4.30;;;2.20;;
12286;SDS011;6206;53.100;11.098;2022-08-11T00:10:17;4.93;;;2.15;;
12286;SDS011;6206;53.100;11.098;2022-08-11T00:12:49;4.15;;;2.20;;
12286;SDS011;6206;53.100;11.098;2022-08-11T00:15:17;3.17;;;1.85;;
12286;SDS011;6206;53.100;11.098;2022-08-11T00:17:45;3.90;;;2.10;;
12286;SDS011;6206;53.100;11.098;2022-08-11T00:20:13;2.90;;;2.30;;
12286;SDS011;6206;53.100;11.098;2022-08-11T00:22:44;5.45;;;2.00;;
12286;SDS011;6206;53.100;11.098;2022-08-11T00:25:12;2.83;;;2.00;;
12286;SDS011;6206;53.100;11.098;2022-08-11T00:27:41;2.95;;;2.30;;
12286;SDS011;6206;53.100;11.098;2022-08-11T00:30:09;3.88;;;2.08;;
12286;SDS011;6206;53.100;11.098;2022-08-11T00:32:37;5.78;;;2.35;;
12286;SDS011;6206;53.100;11.098;2022-08-11T00:35:07;5.72;;;2.20;;
12286;SDS011;6206;53.100;11.098;2022-08-11T00:37:36;4.47;;;2.10;;
12286;SDS011;6206;53.100;11.098;2022-08-11T00:40:06;3.42;;;2.50;;
12286;SDS011;6206;53.100;11.098;2022-08-11T00:42:42;5.90;;;2.15;;
12286;SDS011;6206;53.100;11.098;2022-08-11T00:45:21;4.15;;;2.30;;
12286;SDS011;6206;53.100;11.098;2022-08-11T00:47:54;3.00;;;2.28;;
12286;SDS011;6206;53.100;11.098;2022-08-11T00:50:28;3.92;;;2.20;;
12286;SDS011;6206;53.100;11.098;2022-08-11T00:53:07;4.35;;;2.30;;
12286;SDS011;6206;53.100;11.098;2022-08-11T00:56:04;5.38;;;2.28;;
12286;SDS011;6206;53.100;11.098;2022-08-11T01:02:10;4.88;;;2.28;;
12286;SDS011;6206;53.100;11.098;2022-08-11T01:04:55;3.17;;;2.05;;
12286;SDS011;6206;53.100;11.098;2022-08-11T01:10:51;4.40;;;2.50;;
12286;SDS011;6206;53.100;11.098;2022-08-11T01:13:37;4.82;;;2.45;;
12286;SDS011;6206;53.100;11.098;2022-08-11T01:22:33;4.90;;;2.33;;
12286;SDS011;6206;53.100;11.098;2022-08-11T01:31:36;4.40;;;2.58;;
12286;SDS011;6206;53.100;11.098;2022-08-11T01:34:46;5.10;;;2.70;;
12286;SDS011;6206;53.100;11.098;2022-08-11T01:38:07;3.47;;;2.50;;
12286;SDS011;6206;53.100;11.098;2022-08-11T01:40:51;5.30;;;2.53;;
12286;SDS011;6206;53.100;11.098;2022-08-11T01:43:46;6.40;;;2.80;;
12286;SDS011;6206;53.100;11.098;2022-08-11T01:47:04;4.50;;;2.47;;
12286;SDS011;6206;53.100;11.098;2022-08-11T01:50:05;5.23;;;2.60;;
12286;SDS011;6206;53.100;11.098;2022-08-11T01:52:40;3.13;;;2.20;;
12286;SDS011;6206;53.100;11.098;2022-08-11T01:55:20;4.35;;;2.60;;
12286;SDS011;6206;53.100;11.098;2022-08-11T01:57:55;3.53;;;2.57;;
12286;SDS011;6206;53.100;11.098;2022-08-11T02:00:30;4.50;;;2.50;;
12286;SDS011;6206;53.100;11.098;2022-08-11T02:03:05;3.10;;;2.10;;
12286;SDS011;6206;53.100;11.098;2022-08-11T02:05:46;3.38;;;2.42;;
12286;SDS011;6206;53.100;11.098;2022-08-11T02:08:27;3.08;;;2.40;;
12286;SDS011;6206;53.100;11.098;2022-08-11T02:11:08;2.45;;;2.22;;
12286;SDS011;6206;53.100;11.098;2022-08-11T02:13:57;4.22;;;2.20;;
12286;SDS011;6206;53.100;11.098;2022-08-11T02:16:32;4.32;;;2.45;;
12286;SDS011;6206;53.100;11.098;2022-08-11T02:19:10;4.35;;;2.70;;
12286;SDS011;6206;53.100;11.098;2022-08-11T02:22:05;3.63;;;2.53;;
12286;SDS011;6206;53.100;11.098;2022-08-11T02:24:57;3.80;;;2.60;;
12286;SDS011;6206;53.100;11.098;2022-08-11T02:27:33;3.92;;;2.60;;
12286;SDS011;6206;53.100;11.098;2022-08-11T02:30:07;3.97;;;2.67;;
12286;SDS011;6206;53.100;11.098;2022-08-11T02:32:40;5.28;;;2.75;;
12286;SDS011;6206;53.100;11.098;2022-08-11T02:35:47;5.10;;;2.50;;
12286;SDS011;6206;53.100;11.098;2022-08-11T02:38:27;3.67;;;2.50;;
12286;SDS011;6206;53.100;11.098;2022-08-11T02:40:59;4.63;;;2.97;;
12286;SDS011;6206;53.100;11.098;2022-08-11T02:43:53;18.02;;;5.88;;
12286;SDS011;6206;53.100;11.098;2022-08-11T02:46:32;4.28;;;3.17;;
12286;SDS011;6206;53.100;11.098;2022-08-11T02:49:09;6.53;;;3.20;;
12286;SDS011;6206;53.100;11.098;2022-08-11T02:52:02;5.85;;;3.50;;
12286;SDS011;6206;53.100;11.098;2022-08-11T02:54:34;4.78;;;3.35;;
12286;SDS011;6206;53.100;11.098;2022-08-11T02:57:08;5.18;;;3.10;;
12286;SDS011;6206;53.100;11.098;2022-08-11T02:59:44;4.55;;;3.05;;
12286;SDS011;6206;53.100;11.098;2022-08-11T03:02:21;4.20;;;3.38;;
12286;SDS011;6206;53.100;11.098;2022-08-11T03:05:14;7.55;;;3.50;;
12286;SDS011;6206;53.100;11.098;2022-08-11T03:07:52;5.47;;;3.25;;
12286;SDS011;6206;53.100;11.098;2022-08-11T03:10:33;4.63;;;3.33;;
12286;SDS011;6206;53.100;11.098;2022-08-11T03:13:10;4.60;;;3.00;;
12286;SDS011;6206;53.100;11.098;2022-08-11T03:16:06;4.63;;;2.83;;
12286;SDS011;6206;53.100;11.098;2022-08-11T03:19:02;3.37;;;2.87;;
12286;SDS011;6206;53.100;11.098;2022-08-11T03:21:39;5.17;;;3.20;;
12286;SDS011;6206;53.100;11.098;2022-08-11T03:24:10;3.53;;;2.90;;
12286;SDS011;6206;53.100;11.098;2022-08-11T03:26:46;5.55;;;3.00;;
12286;SDS011;6206;53.100;11.098;2022-08-11T03:29:22;4.63;;;2.95;;
12286;SDS011;6206;53.100;11.098;2022-08-11T03:31:57;5.32;;;3.22;;
12286;SDS011;6206;53.100;11.098;2022-08-11T03:34:29;3.50;;;2.53;;
12286;SDS011;6206;53.100;11.098;2022-08-11T03:37:10;3.47;;;2.60;;
12286;SDS011;6206;53.100;11.098;2022-08-11T03:40:12;4.75;;;2.50;;
12286;SDS011;6206;53.100;11.098;2022-08-11T03:43:06;3.80;;;2.58;;
12286;SDS011;6206;53.100;11.098;2022-08-11T03:45:46;3.25;;;2.25;;
12286;SDS011;6206;53.100;11.098;2022-08-11T03:48:27;2.67;;;2.20;;
12286;SDS011;6206;53.100;11.098;2022-08-11T03:51:05;2.85;;;1.98;;
12286;SDS011;6206;53.100;11.098;2022-08-11T03:53:43;3.60;;;2.20;;
12286;SDS011;6206;53.100;11.098;2022-08-11T03:56:21;3.38;;;2.13;;
12286;SDS011;6206;53.100;11.098;2022-08-11T04:08:29;2.15;;;1.95;;
12286;SDS011;6206;53.100;11.098;2022-08-11T04:11:37;3.60;;;2.20;;
12286;SDS011;6206;53.100;11.098;2022-08-11T04:14:48;2.53;;;2.23;;
12286;SDS011;6206;53.100;11.098;2022-08-11T04:17:58;4.97;;;2.30;;
12286;SDS011;6206;53.100;11.098;2022-08-11T04:20:59;2.70;;;2.10;;
12286;SDS011;6206;53.100;11.098;2022-08-11T04:23:41;2.97;;;2.20;;
12286;SDS011;6206;53.100;11.098;2022-08-11T04:29:34;3.23;;;2.40;;
12286;SDS011;6206;53.100;11.098;2022-08-11T04:32:20;4.53;;;2.67;;
12286;SDS011;6206;53.100;11.098;2022-08-11T04:35:09;3.15;;;2.45;;
12286;SDS011;6206;53.100;11.098;2022-08-11T04:37:52;2.80;;;2.50;;
12286;SDS011;6206;53.100;11.098;2022-08-11T04:40:48;2.88;;;2.55;;
12286;SDS011;6206;53.100;11.098;2022-08-11T04:46:39;3.70;;;2.70;;
12286;SDS011;6206;53.100;11.098;2022-08-11T04:53:03;5.32;;;3.10;;
12286;SDS011;6206;53.100;11.098;2022-08-11T04:56:04;4.82;;;2.92;;
12286;SDS011;6206;53.100;11.098;2022-08-11T04:59:07;4.07;;;2.72;;
12286;SDS011;6206;53.100;11.098;2022-08-11T05:02:09;5.32;;;3.05;;
12286;SDS011;6206;53.100;11.098;2022-08-11T05:05:02;4.05;;;2.97;;
12286;SDS011;6206;53.100;11.098;2022-08-11T05:08:02;5.80;;;3.60;;
12286;SDS011;6206;53.100;11.098;2022-08-11T05:10:57;3.40;;;3.08;;
12286;SDS011;6206;53.100;11.098;2022-08-11T05:13:40;4.60;;;3.10;;
12286;SDS011;6206;53.100;11.098;2022-08-11T05:16:28;4.53;;;3.28;;
12286;SDS011;6206;53.100;11.098;2022-08-11T05:19:18;4.97;;;3.50;;
12286;SDS011;6206;53.100;11.098;2022-08-11T05:22:06;4.82;;;3.45;;
12286;SDS011;6206;53.100;11.098;2022-08-11T05:24:55;5.75;;;3.60;;
12286;SDS011;6206;53.100;11.098;2022-08-11T05:27:48;6.38;;;3.60;;
12286;SDS011;6206;53.100;11.098;2022-08-11T05:30:37;5.75;;;3.90;;
12286;SDS011;6206;53.100;11.098;2022-08-11T05:33:29;6.33;;;3.57;;
12286;SDS011;6206;53.100;11.098;2022-08-11T05:36:22;4.28;;;3.38;;
12286;SDS011;6206;53.100;11.098;2022-08-11T05:38:59;8.52;;;3.97;;
12286;SDS011;6206;53.100;11.098;2022-08-11T05:41:47;4.78;;;3.45;;
12286;SDS011;6206;53.100;11.098;2022-08-11T05:44:32;5.82;;;3.25;;
12286;SDS011;6206;53.100;11.098;2022-08-11T05:47:20;4.30;;;3.13;;
12286;SDS011;6206;53.100;11.098;2022-08-11T05:50:07;9.70;;;3.28;;
12286;SDS011;6206;53.100;11.098;2022-08-11T05:52:53;8.50;;;3.65;;
12286;SDS011;6206;53.100;11.098;2022-08-11T05:55:41;6.78;;;3.60;;
12286;SDS011;6206;53.100;11.098;2022-08-11T05:58:30;5.75;;;3.58;;
12286;SDS011;6206;53.100;11.098;2022-08-11T06:00:58;3.95;;;3.42;;
12286;SDS011;6206;53.100;11.098;2022-08-11T06:03:26;5.40;;;3.40;;
12286;SDS011;6206;53.100;11.098;2022-08-11T06:05:55;6.93;;;3.38;;
12286;SDS011;6206;53.100;11.098;2022-08-11T06:08:27;5.22;;;3.33;;
12286;SDS011;6206;53.100;11.098;2022-08-11T06:11:00;6.22;;;3.70;;
12286;SDS011;6206;53.100;11.098;2022-08-11T06:13:28;6.07;;;3.30;;
12286;SDS011;6206;53.100;11.098;2022-08-11T06:15:56;9.45;;;3.15;;
12286;SDS011;6206;53.100;11.098;2022-08-11T06:18:25;6.57;;;3.58;;
12286;SDS011;6206;53.100;11.098;2022-08-11T06:20:53;6.72;;;3.72;;
12286;SDS011;6206;53.100;11.098;2022-08-11T06:23:22;4.80;;;3.40;;
12286;SDS011;6206;53.100;11.098;2022-08-11T06:25:55;5.80;;;3.05;;
12286;SDS011;6206;53.100;11.098;2022-08-11T06:28:29;5.45;;;3.25;;
12286;SDS011;6206;53.100;11.098;2022-08-11T06:30:57;3.73;;;3.00;;
12286;SDS011;6206;53.100;11.098;2022-08-11T06:33:29;5.18;;;3.17;;
12286;SDS011;6206;53.100;11.098;2022-08-11T06:36:02;5.93;;;3.13;;
12286;SDS011;6206;53.100;11.098;2022-08-11T06:38:39;5.28;;;2.85;;
12286;SDS011;6206;53.100;11.098;2022-08-11T06:41:17;5.63;;;3.20;;
12286;SDS011;6206;53.100;11.098;2022-08-11T06:44:16;5.95;;;3.40;;
12286;SDS011;6206;53.100;11.098;2022-08-11T06:46:48;16.40;;;3.58;;
12286;SDS011;6206;53.100;11.098;2022-08-11T06:49:19;16.35;;;4.25;;
12286;SDS011;6206;53.100;11.098;2022-08-11T06:52:05;4.53;;;2.50;;
12286;SDS011;6206;53.100;11.098;2022-08-11T06:54:34;4.93;;;2.40;;
12286;SDS011;6206;53.100;11.098;2022-08-11T06:57:05;8.35;;;2.38;;
12286;SDS011;6206;53.100;11.098;2022-08-11T06:59:55;2.97;;;2.20;;
12286;SDS011;6206;53.100;11.098;2022-08-11T07:02:51;3.70;;;2.35;;
12286;SDS011;6206;53.100;11.098;2022-08-11T07:05:25;4.45;;;2.65;;
12286;SDS011;6206;53.100;11.098;2022-08-11T07:08:07;7.30;;;2.70;;
12286;SDS011;6206;53.100;11.098;2022-08-11T07:11:36;8.13;;;2.22;;
12286;SDS011;6206;53.100;11.098;2022-08-11T07:14:35;5.70;;;2.47;;
12286;SDS011;6206;53.100;11.098;2022-08-11T07:17:25;3.90;;;2.63;;
12286;SDS011;6206;53.100;11.098;2022-08-11T07:19:54;5.80;;;2.40;;
12286;SDS011;6206;53.100;11.098;2022-08-11T07:22:43;2.58;;;2.28;;
12286;SDS011;6206;53.100;11.098;2022-08-11T07:25:37;4.30;;;2.67;;
12286;SDS011;6206;53.100;11.098;2022-08-11T07:28:24;4.72;;;2.90;;
12286;SDS011;6206;53.100;11.098;2022-08-11T07:31:13;2.75;;;2.40;;
12286;SDS011;6206;53.100;11.098;2022-08-11T07:33:44;4.10;;;2.42;;
12286;SDS011;6206;53.100;11.098;2022-08-11T07:36:14;5.30;;;2.20;;
12286;SDS011;6206;53.100;11.098;2022-08-11T07:38:43;3.50;;;2.10;;
12286;SDS011;6206;53.100;11.098;2022-08-11T07:41:15;4.03;;;2.38;;
12286;SDS011;6206;53.100;11.098;2022-08-11T07:43:44;3.08;;;2.30;;
12286;SDS011;6206;53.100;11.098;2022-08-11T07:46:14;5.00;;;2.00;;
12286;SDS011;6206;53.100;11.098;2022-08-11T07:49:01;2.58;;;2.38;;
12286;SDS011;6206;53.100;11.098;2022-08-11T07:51:47;2.88;;;2.17;;
12286;SDS011;6206;53.100;11.098;2022-08-11T07:54:32;4.63;;;2.20;;
12286;SDS011;6206;53.100;11.098;2022-08-11T07:57:01;3.80;;;2.17;;
12286;SDS011;6206;53.100;11.098;2022-08-11T08:32:00;2.97;;;2.30;;
12286;SDS011;6206;53.100;11.098;2022-08-11T08:34:27;3.15;;;2.05;;
12286;SDS011;6206;53.100;11.098;2022-08-11T08:36:55;2.15;;;1.85;;
12286;SDS011;6206;53.100;11.098;2022-08-11T08:39:23;4.70;;;2.10;;
12286;SDS011;6206;53.100;11.098;2022-08-11T08:41:51;2.78;;;2.17;;
12286;SDS011;6206;53.100;11.098;2022-08-11T08:44:20;2.65;;;1.70;;
12286;SDS011;6206;53.100;11.098;2022-08-11T08:46:50;4.63;;;1.80;;
12286;SDS011;6206;53.100;11.098;2022-08-11T08:49:21;4.03;;;1.50;;
12286;SDS011;6206;53.100;11.098;2022-08-11T08:51:53;2.38;;;1.70;;
12286;SDS011;6206;53.100;11.098;2022-08-11T08:54:26;5.53;;;2.00;;
12286;SDS011;6206;53.100;11.098;2022-08-11T08:56:57;4.40;;;1.73;;
12286;SDS011;6206;53.100;11.098;2022-08-11T08:59:27;4.60;;;2.08;;
12286;SDS011;6206;53.100;11.098;2022-08-11T09:09:16;3.17;;;1.80;;
12286;SDS011;6206;53.100;11.098;2022-08-11T09:11:46;2.37;;;1.70;;
12286;SDS011;6206;53.100;11.098;2022-08-11T09:14:18;4.60;;;1.80;;
12286;SDS011;6206;53.100;11.098;2022-08-11T09:16:47;3.92;;;1.90;;
12286;SDS011;6206;53.100;11.098;2022-08-11T09:19:15;5.40;;;2.40;;
12286;SDS011;6206;53.100;11.098;2022-08-11T09:21:45;3.15;;;1.92;;
12286;SDS011;6206;53.100;11.098;2022-08-11T09:24:36;2.92;;;1.80;;
12286;SDS011;6206;53.100;11.098;2022-08-11T09:27:23;3.90;;;1.58;;
12286;SDS011;6206;53.100;11.098;2022-08-11T09:29:51;5.95;;;1.92;;
12286;SDS011;6206;53.100;11.098;2022-08-11T09:32:19;1.90;;;1.70;;
12286;SDS011;6206;53.100;11.098;2022-08-11T09:34:48;3.08;;;1.92;;
12286;SDS011;6206;53.100;11.098;2022-08-11T09:37:17;4.88;;;1.85;;
12286;SDS011;6206;53.100;11.098;2022-08-11T09:40:05;2.50;;;1.90;;
12286;SDS011;6206;53.100;11.098;2022-08-11T09:42:52;4.47;;;1.73;;
12286;SDS011;6206;53.100;11.098;2022-08-11T09:45:37;4.22;;;1.80;;
12286;SDS011;6206;53.100;11.098;2022-08-11T09:48:04;4.30;;;1.92;;
12286;SDS011;6206;53.100;11.098;2022-08-11T09:50:32;3.03;;;2.00;;
12286;SDS011;6206;53.100;11.098;2022-08-11T09:52:59;2.15;;;1.95;;
12286;SDS011;6206;53.100;11.098;2022-08-11T11:11:20;2.42;;;1.80;;
12286;SDS011;6206;53.100;11.098;2022-08-11T12:17:59;1.90;;;1.60;;
12286;SDS011;6206;53.100;11.098;2022-08-11T12:20:28;2.40;;;1.70;;
12286;SDS011;6206;53.100;11.098;2022-08-11T12:22:56;3.67;;;1.75;;
12286;SDS011;6206;53.100;11.098;2022-08-11T12:25:41;2.92;;;1.95;;
12286;SDS011;6206;53.100;11.098;2022-08-11T12:28:27;3.78;;;1.98;;
12286;SDS011;6206;53.100;11.098;2022-08-11T12:30:55;5.10;;;1.80;;
12286;SDS011;6206;53.100;11.098;2022-08-11T12:33:22;2.08;;;1.70;;
12286;SDS011;6206;53.100;11.098;2022-08-11T12:35:52;2.05;;;1.60;;
12286;SDS011;6206;53.100;11.098;2022-08-11T12:38:23;2.05;;;1.83;;
12286;SDS011;6206;53.100;11.098;2022-08-11T12:40:50;1.33;;;1.23;;
12286;SDS011;6206;53.100;11.098;2022-08-11T12:43:36;3.20;;;1.73;;
12286;SDS011;6206;53.100;11.098;2022-08-11T12:46:24;8.00;;;1.80;;
12286;SDS011;6206;53.100;11.098;2022-08-11T12:48:56;4.80;;;1.70;;
12286;SDS011;6206;53.100;11.098;2022-08-11T12:51:46;4.95;;;1.52;;
12286;SDS011;6206;53.100;11.098;2022-08-11T12:54:24;2.60;;;2.40;;
12286;SDS011;6206;53.100;11.098;2022-08-11T12:56:57;6.55;;;1.90;;
12286;SDS011;6206;53.100;11.098;2022-08-11T12:59:44;1.92;;;1.45;;
12286;SDS011;6206;53.100;11.098;2022-08-11T13:02:28;3.15;;;1.50;;
12286;SDS011;6206;53.100;11.098;2022-08-11T13:05:13;3.83;;;1.88;;
12286;SDS011;6206;53.100;11.098;2022-08-11T13:07:42;2.05;;;1.52;;
12286;SDS011;6206;53.100;11.098;2022-08-11T13:10:11;1.60;;;1.30;;
12286;SDS011;6206;53.100;11.098;2022-08-11T13:13:00;2.72;;;1.55;;
12286;SDS011;6206;53.100;11.098;2022-08-11T13:15:27;5.95;;;1.50;;
12286;SDS011;6206;53.100;11.098;2022-08-11T13:17:54;1.98;;;1.55;;
12286;SDS011;6206;53.100;11.098;2022-08-11T13:20:21;1.45;;;1.35;;
12286;SDS011;6206;53.100;11.098;2022-08-11T13:22:51;1.85;;;1.40;;
12286;SDS011;6206;53.100;11.098;2022-08-11T13:25:20;2.70;;;1.40;;
12286;SDS011;6206;53.100;11.098;2022-08-11T13:27:50;2.22;;;1.40;;
12286;SDS011;6206;53.100;11.098;2022-08-11T13:40:46;1.48;;;1.30;;
12286;SDS011;6206;53.100;11.098;2022-08-11T13:58:17;3.15;;;1.20;;
12286;SDS011;6206;53.100;11.098;2022-08-11T14:00:47;1.42;;;1.00;;
12286;SDS011;6206;53.100;11.098;2022-08-11T14:03:16;1.08;;;0.98;;
12286;SDS011;6206;53.100;11.098;2022-08-11T14:05:46;3.03;;;1.20;;
12286;SDS011;6206;53.100;11.098;2022-08-11T14:08:19;2.25;;;0.93;;
12286;SDS011;6206;53.100;11.098;2022-08-11T14:10:50;1.65;;;1.10;;
12286;SDS011;6206;53.100;11.098;2022-08-11T14:13:32;2.63;;;1.15;;
12286;SDS011;6206;53.100;11.098;2022-08-11T14:16:05;1.17;;;1.00;;
12286;SDS011;6206;53.100;11.098;2022-08-11T14:18:37;1.77;;;1.20;;
12286;SDS011;6206;53.100;11.098;2022-08-11T14:21:08;1.10;;;1.00;;
12286;SDS011;6206;53.100;11.098;2022-08-11T14:23:57;6.40;;;1.27;;
12286;SDS011;6206;53.100;11.098;2022-08-11T14:26:26;3.22;;;1.00;;
12286;SDS011;6206;53.100;11.098;2022-08-11T14:28:56;3.05;;;1.30;;
12286;SDS011;6206;53.100;11.098;2022-08-11T14:31:27;1.08;;;0.95;;
12286;SDS011;6206;53.100;11.098;2022-08-11T14:33:56;1.73;;;0.98;;
12286;SDS011;6206;53.100;11.098;2022-08-11T14:36:32;1.52;;;1.00;;
12286;SDS011;6206;53.100;11.098;2022-08-11T14:39:00;1.20;;;1.00;;
12286;SDS011;6206;53.100;11.098;2022-08-11T14:41:32;2.85;;;1.10;;
12286;SDS011;6206;53.100;11.098;2022-08-11T14:44:16;4.28;;;1.10;;
12286;SDS011;6206;53.100;11.098;2022-08-11T14:47:01;2.40;;;1.30;;
12286;SDS011;6206;53.100;11.098;2022-08-11T14:49:32;1.20;;;0.82;;
12286;SDS011;6206;53.100;11.098;2022-08-11T14:52:01;3.60;;;1.00;;
12286;SDS011;6206;53.100;11.098;2022-08-11T14:54:31;2.35;;;1.02;;
12286;SDS011;6206;53.100;11.098;2022-08-11T14:57:18;2.35;;;1.00;;
12286;SDS011;6206;53.100;11.098;2022-08-11T14:59:47;1.27;;;0.90;;
12286;SDS011;6206;53.100;11.098;2022-08-11T15:02:15;1.27;;;0.90;;
12286;SDS011;6206;53.100;11.098;2022-08-11T15:05:02;3.85;;;1.48;;
12286;SDS011;6206;53.100;11.098;2022-08-11T15:07:29;1.10;;;1.00;;
12286;SDS011;6206;53.100;11.098;2022-08-11T15:09:58;1.52;;;0.98;;
12286;SDS011;6206;53.100;11.098;2022-08-11T15:12:28;1.52;;;0.98;;
12286;SDS011;6206;53.100;11.098;2022-08-11T15:14:55;7.78;;;1.00;;
12286;SDS011;6206;53.100;11.098;2022-08-11T15:17:40;1.52;;;1.02;;
12286;SDS011;6206;53.100;11.098;2022-08-11T15:20:09;1.25;;;0.98;;
12286;SDS011;6206;53.100;11.098;2022-08-11T15:22:58;3.55;;;1.08;;
12286;SDS011;6206;53.100;11.098;2022-08-11T15:25:45;1.17;;;0.90;;
12286;SDS011;6206;53.100;11.098;2022-08-11T15:28:16;3.25;;;1.00;;
12286;SDS011;6206;53.100;11.098;2022-08-11T15:44:40;1.23;;;0.98;;
12286;SDS011;6206;53.100;11.098;2022-08-11T15:47:26;1.80;;;0.98;;
12286;SDS011;6206;53.100;11.098;2022-08-11T15:49:58;1.45;;;1.10;;
12286;SDS011;6206;53.100;11.098;2022-08-11T15:52:30;1.55;;;1.00;;
12286;SDS011;6206;53.100;11.098;2022-08-11T15:55:03;3.60;;;1.10;;
12286;SDS011;6206;53.100;11.098;2022-08-11T15:57:32;1.38;;;1.20;;
12286;SDS011;6206;53.100;11.098;2022-08-11T16:00:20;2.90;;;1.10;;
12286;SDS011;6206;53.100;11.098;2022-08-11T16:03:05;2.50;;;1.02;;
12286;SDS011;6206;53.100;11.098;2022-08-11T16:05:51;3.22;;;1.77;;
12286;SDS011;6206;53.100;11.098;2022-08-11T16:08:18;1.67;;;1.20;;
12286;SDS011;6206;53.100;11.098;2022-08-11T16:10:48;2.63;;;1.20;;
12286;SDS011;6206;53.100;11.098;2022-08-11T16:13:17;2.53;;;1.00;;
12286;SDS011;6206;53.100;11.098;2022-08-11T16:16:02;3.22;;;1.00;;
12286;SDS011;6206;53.100;11.098;2022-08-11T16:18:42;1.85;;;1.20;;
12286;SDS011;6206;53.100;11.098;2022-08-11T16:21:12;3.85;;;1.50;;
12286;SDS011;6206;53.100;11.098;2022-08-11T16:23:42;2.70;;;1.20;;
12286;SDS011;6206;53.100;11.098;2022-08-11T16:26:11;4.05;;;1.20;;
12286;SDS011;6206;53.100;11.098;2022-08-11T16:28:40;2.58;;;1.00;;
12286;SDS011;6206;53.100;11.098;2022-08-11T16:31:10;2.25;;;1.10;;
12286;SDS011;6206;53.100;11.098;2022-08-11T16:33:37;2.30;;;1.13;;
12286;SDS011;6206;53.100;11.098;2022-08-11T16:36:07;3.35;;;1.25;;
12286;SDS011;6206;53.100;11.098;2022-08-11T16:38:53;3.30;;;1.25;;
12286;SDS011;6206;53.100;11.098;2022-08-11T16:41:22;2.45;;;1.70;;
12286;SDS011;6206;53.100;11.098;2022-08-11T16:44:09;4.20;;;1.40;;
12286;SDS011;6206;53.100;11.098;2022-08-11T16:46:57;2.90;;;1.40;;
12286;SDS011;6206;53.100;11.098;2022-08-11T16:49:28;2.78;;;1.80;;
12286;SDS011;6206;53.100;11.098;2022-08-11T17:15:46;3.35;;;2.05;;
12286;SDS011;6206;53.100;11.098;2022-08-11T17:18:38;2.50;;;1.10;;
12286;SDS011;6206;53.100;11.098;2022-08-11T17:21:14;2.72;;;1.70;;
12286;SDS011;6206;53.100;11.098;2022-08-11T17:23:44;1.83;;;1.27;;
12286;SDS011;6206;53.100;11.098;2022-08-11T17:26:17;2.95;;;1.52;;
12286;SDS011;6206;53.100;11.098;2022-08-11T17:28:46;2.75;;;1.80;;
12286;SDS011;6206;53.100;11.098;2022-08-11T17:31:15;1.25;;;1.10;;
12286;SDS011;6206;53.100;11.098;2022-08-11T17:34:03;2.75;;;1.13;;
12286;SDS011;6206;53.100;11.098;2022-08-11T18:19:24;4.72;;;1.23;;
12286;SDS011;6206;53.100;11.098;2022-08-11T18:22:12;2.30;;;1.33;;
12286;SDS011;6206;53.100;11.098;2022-08-11T18:25:00;1.08;;;0.98;;
12286;SDS011;6206;53.100;11.098;2022-08-11T18:27:48;2.03;;;1.10;;
12286;SDS011;6206;53.100;11.098;2022-08-11T18:30:37;2.75;;;1.10;;
12286;SDS011;6206;53.100;11.098;2022-08-11T18:33:24;1.50;;;1.30;;
12286;SDS011;6206;53.100;11.098;2022-08-11T18:36:12;3.50;;;1.40;;
12286;SDS011;6206;53.100;11.098;2022-08-11T18:39:03;3.25;;;1.60;;
12286;SDS011;6206;53.100;11.098;2022-08-11T18:41:51;2.90;;;1.40;;
12286;SDS011;6206;53.100;11.098;2022-08-11T18:44:37;1.33;;;1.10;;
12286;SDS011;6206;53.100;11.098;2022-08-11T18:47:22;4.03;;;1.50;;
12286;SDS011;6206;53.100;11.098;2022-08-11T18:50:09;3.30;;;1.27;;
12286;SDS011;6206;53.100;11.098;2022-08-11T18:52:57;3.77;;;1.60;;
12286;SDS011;6206;53.100;11.098;2022-08-11T18:55:44;1.90;;;1.30;;
12286;SDS011;6206;53.100;11.098;2022-08-11T18:58:31;1.95;;;1.45;;
12286;SDS011;6206;53.100;11.098;2022-08-11T19:01:18;7.40;;;1.73;;
12286;SDS011;6206;53.100;11.098;2022-08-11T19:04:05;4.30;;;1.60;;
12286;SDS011;6206;53.100;11.098;2022-08-11T19:06:51;6.57;;;1.60;;
12286;SDS011;6206;53.100;11.098;2022-08-11T19:09:39;3.22;;;1.38;;
12286;SDS011;6206;53.100;11.098;2022-08-11T19:12:26;5.35;;;1.40;;
12286;SDS011;6206;53.100;11.098;2022-08-11T19:15:14;3.33;;;1.42;;
12286;SDS011;6206;53.100;11.098;2022-08-11T19:18:00;4.85;;;1.65;;
12286;SDS011;6206;53.100;11.098;2022-08-11T19:20:45;5.78;;;1.70;;
12286;SDS011;6206;53.100;11.098;2022-08-11T19:23:34;3.65;;;1.70;;
12286;SDS011;6206;53.100;11.098;2022-08-11T19:26:23;2.38;;;1.30;;
12286;SDS011;6206;53.100;11.098;2022-08-11T19:42:53;4.63;;;1.70;;
12286;SDS011;6206;53.100;11.098;2022-08-11T19:45:41;1.45;;;1.30;;
12286;SDS011;6206;53.100;11.098;2022-08-11T19:48:25;8.38;;;1.70;;
12286;SDS011;6206;53.100;11.098;2022-08-11T19:51:11;7.53;;;1.80;;
12286;SDS011;6206;53.100;11.098;2022-08-11T19:53:58;6.13;;;1.75;;
12286;SDS011;6206;53.100;11.098;2022-08-11T19:56:43;1.98;;;1.50;;
12286;SDS011;6206;53.100;11.098;2022-08-11T19:59:29;2.40;;;1.25;;
12286;SDS011;6206;53.100;11.098;2022-08-11T20:02:17;3.25;;;1.45;;
12286;SDS011;6206;53.100;11.098;2022-08-11T20:05:02;2.45;;;1.50;;
12286;SDS011;6206;53.100;11.098;2022-08-11T20:07:47;4.82;;;1.70;;
12286;SDS011;6206;53.100;11.098;2022-08-11T20:13:18;2.53;;;1.63;;
12286;SDS011;6206;53.100;11.098;2022-08-11T20:21:35;3.30;;;1.80;;
12286;SDS011;6206;53.100;11.098;2022-08-11T21:16:40;3.67;;;1.45;;
12286;SDS011;6206;53.100;11.098;2022-08-11T21:19:28;4.05;;;1.50;;
12286;SDS011;6206;53.100;11.098;2022-08-11T21:22:16;5.40;;;1.90;;
12286;SDS011;6206;53.100;11.098;2022-08-11T21:25:05;5.00;;;1.85;;
12286;SDS011;6206;53.100;11.098;2022-08-11T21:27:51;4.80;;;1.88;;
12286;SDS011;6206;53.100;11.098;2022-08-11T21:30:39;3.95;;;1.80;;
12286;SDS011;6206;53.100;11.098;2022-08-11T21:33:25;2.90;;;1.90;;
12286;SDS011;6206;53.100;11.098;2022-08-11T21:36:11;5.70;;;1.75;;
12286;SDS011;6206;53.100;11.098;2022-08-11T21:38:57;7.28;;;2.10;;
12286;SDS011;6206;53.100;11.098;2022-08-11T21:41:44;4.60;;;2.00;;
12286;SDS011;6206;53.100;11.098;2022-08-11T21:44:30;3.72;;;2.08;;
12286;SDS011;6206;53.100;11.098;2022-08-11T21:47:15;4.83;;;2.00;;
12286;SDS011;6206;53.100;11.098;2022-08-11T21:50:00;4.53;;;1.88;;
12286;SDS011;6206;53.100;11.098;2022-08-11T21:52:44;4.15;;;1.80;;
12286;SDS011;6206;53.100;11.098;2022-08-11T21:55:29;4.35;;;1.88;;
12286;SDS011;6206;53.100;11.098;2022-08-11T21:58:15;5.78;;;1.83;;
12286;SDS011;6206;53.100;11.098;2022-08-11T22:01:01;3.08;;;1.60;;
12286;SDS011;6206;53.100;11.098;2022-08-11T22:03:46;3.70;;;2.13;;
12286;SDS011;6206;53.100;11.098;2022-08-11T22:06:31;4.40;;;1.80;;
12286;SDS011;6206;53.100;11.098;2022-08-11T22:09:16;3.92;;;1.80;;
12286;SDS011;6206;53.100;11.098;2022-08-11T22:12:00;6.57;;;2.22;;
12286;SDS011;6206;53.100;11.098;2022-08-11T22:17:30;6.60;;;2.30;;
12286;SDS011;6206;53.100;11.098;2022-08-11T22:20:14;2.88;;;1.98;;
12286;SDS011;6206;53.100;11.098;2022-08-11T22:22:59;3.17;;;1.60;;
12286;SDS011;6206;53.100;11.098;2022-08-11T23:04:15;5.97;;;2.15;;
12286;SDS011;6206;53.100;11.098;2022-08-11T23:07:01;4.63;;;2.20;;
12286;SDS011;6206;53.100;11.098;2022-08-11T23:09:46;6.10;;;1.80;;
12286;SDS011;6206;53.100;11.098;2022-08-11T23:12:30;3.80;;;2.00;;
12286;SDS011;6206;53.100;11.098;2022-08-11T23:15:16;4.72;;;2.00;;
12286;SDS011;6206;53.100;11.098;2022-08-11T23:18:00;3.92;;;2.10;;
12286;SDS011;6206;53.100;11.098;2022-08-11T23:20:47;7.57;;;1.80;;
12286;SDS011;6206;53.100;11.098;2022-08-11T23:23:31;3.45;;;1.90;;